메인 페이지
METAR-TAF:

METAR-TAF

공항 :

애버딘, 스코틀랜드

위도: 57-12N, 경도: 002-13W, 고도: 65m

현재 날씨관측

예보는 28분 전, 21:20시(UTC)에 발표되었습니다.
여러 방향의 바람 2kt
온도 16°C
습도 94%
기압 1002 hPa
시정 10km 이상
고도 3700ft 상공 구름 많음

METAR: EGPD 202120Z VRB02KT 9999 BKN037 16/15 Q1002 TEMPO RA

시각: 22:48 (21:48 UTC)

예보

예보는 2 시간 31분 전, 19:17시(UTC)에 발표되었습니다.
예보 대상 시간: 20일 19시부터 21일 18시까지 (UTC)
6kt
시정 10km 이상
고도 3000ft 상공 구름 조금
일시적
20일 19시부터 21일 05시까지 (UTC)
시정: 6000m
확률 30% :
일시적
20일 20시부터 21일 03시까지 (UTC)
시정: 3000m
고도 400ft 상공 구름 많음
강한비
전환 중
20일 23시부터 21일 02시까지 (UTC)
북서10kt
전환 중
21일 06시부터 21일 09시까지 (UTC)
서남서6kt

TAF: EGPD 201917Z 2019/2118 18006KT 9999 FEW030 TEMPO 2019/2105 6000 RA PROB30 TEMPO 2020/2103 3000 +RA BKN004 BECMG 2023/2102 31010KT BECMG 2106/2109 25006KT

4,000개 이상의 공항 관측 자료 및 예보 (METAR 및 TAF 보고).

지도상에서 검색 가능한 기상관측소가 노란 점과 빨간 점으로 표시되어 있습니다.

기상관측소 명을 보려면 표시 위로 마우스를 이동하세요.

날씨 관측과 예보를 보려면 클릭하세요.

지도 변경 : 확대하려면 엑스 표시가 있는 녹색 버튼, 축소하려면 빼기 표시가 있는 녹색 버튼, 다음 페이지의 지도를 보려면 녹색 화살표를 클릭하세요.


METAR-TAF: